sensor_id;sensor_type;location;lat;lon;timestamp;P1;durP1;ratioP1;P2;durP2;ratioP2
946;SDS011;460;48.734;9.152;2023-09-07T00:00:10;3.73;;;3.40;;
946;SDS011;460;48.734;9.152;2023-09-07T00:02:39;3.93;;;3.53;;
946;SDS011;460;48.734;9.152;2023-09-07T00:05:06;5.40;;;3.23;;
946;SDS011;460;48.734;9.152;2023-09-07T00:07:34;5.20;;;4.07;;
946;SDS011;460;48.734;9.152;2023-09-07T00:10:01;4.90;;;4.10;;
946;SDS011;460;48.734;9.152;2023-09-07T00:12:29;4.90;;;4.40;;
946;SDS011;460;48.734;9.152;2023-09-07T00:14:57;4.33;;;3.93;;
946;SDS011;460;48.734;9.152;2023-09-07T00:17:25;4.90;;;4.40;;
946;SDS011;460;48.734;9.152;2023-09-07T00:19:53;3.50;;;3.23;;
946;SDS011;460;48.734;9.152;2023-09-07T00:22:22;4.37;;;3.97;;
946;SDS011;460;48.734;9.152;2023-09-07T00:24:48;4.70;;;4.30;;
946;SDS011;460;48.734;9.152;2023-09-07T00:27:15;3.60;;;3.30;;
946;SDS011;460;48.734;9.152;2023-09-07T00:29:41;4.40;;;3.57;;
946;SDS011;460;48.734;9.152;2023-09-07T00:32:08;4.37;;;3.50;;
946;SDS011;460;48.734;9.152;2023-09-07T00:34:35;3.30;;;2.97;;
946;SDS011;460;48.734;9.152;2023-09-07T00:37:03;5.43;;;4.03;;
946;SDS011;460;48.734;9.152;2023-09-07T00:39:30;3.80;;;3.33;;
946;SDS011;460;48.734;9.152;2023-09-07T00:41:57;4.27;;;3.80;;
946;SDS011;460;48.734;9.152;2023-09-07T00:44:23;4.63;;;3.60;;
946;SDS011;460;48.734;9.152;2023-09-07T00:46:50;5.47;;;3.83;;
946;SDS011;460;48.734;9.152;2023-09-07T00:49:17;4.17;;;3.77;;
946;SDS011;460;48.734;9.152;2023-09-07T00:51:44;3.27;;;2.97;;
946;SDS011;460;48.734;9.152;2023-09-07T00:54:12;3.73;;;3.40;;
946;SDS011;460;48.734;9.152;2023-09-07T00:56:39;4.07;;;3.40;;
946;SDS011;460;48.734;9.152;2023-09-07T00:59:07;4.10;;;3.33;;
946;SDS011;460;48.734;9.152;2023-09-07T01:01:34;4.60;;;4.00;;
946;SDS011;460;48.734;9.152;2023-09-07T01:04:01;5.10;;;4.60;;
946;SDS011;460;48.734;9.152;2023-09-07T01:06:29;4.30;;;3.70;;
946;SDS011;460;48.734;9.152;2023-09-07T01:09:00;4.70;;;4.13;;
946;SDS011;460;48.734;9.152;2023-09-07T01:11:36;4.37;;;3.97;;
946;SDS011;460;48.734;9.152;2023-09-07T01:14:05;3.80;;;3.50;;
946;SDS011;460;48.734;9.152;2023-09-07T01:16:32;4.93;;;4.53;;
946;SDS011;460;48.734;9.152;2023-09-07T01:19:01;4.77;;;3.97;;
946;SDS011;460;48.734;9.152;2023-09-07T01:21:33;4.73;;;3.90;;
946;SDS011;460;48.734;9.152;2023-09-07T01:24:03;5.20;;;4.50;;
946;SDS011;460;48.734;9.152;2023-09-07T01:26:33;3.40;;;3.10;;
946;SDS011;460;48.734;9.152;2023-09-07T01:29:01;4.60;;;3.50;;
946;SDS011;460;48.734;9.152;2023-09-07T01:31:30;3.50;;;3.20;;
946;SDS011;460;48.734;9.152;2023-09-07T01:33:58;4.10;;;3.67;;
946;SDS011;460;48.734;9.152;2023-09-07T01:36:26;6.40;;;4.37;;
946;SDS011;460;48.734;9.152;2023-09-07T01:38:55;5.33;;;4.20;;
946;SDS011;460;48.734;9.152;2023-09-07T01:41:23;6.43;;;3.63;;
946;SDS011;460;48.734;9.152;2023-09-07T01:43:50;4.57;;;3.83;;
946;SDS011;460;48.734;9.152;2023-09-07T01:46:18;4.90;;;3.93;;
946;SDS011;460;48.734;9.152;2023-09-07T01:48:45;4.13;;;3.73;;
946;SDS011;460;48.734;9.152;2023-09-07T01:51:13;3.77;;;3.40;;
946;SDS011;460;48.734;9.152;2023-09-07T01:53:39;5.23;;;4.27;;
946;SDS011;460;48.734;9.152;2023-09-07T01:56:07;5.40;;;4.13;;
946;SDS011;460;48.734;9.152;2023-09-07T01:58:34;4.30;;;3.90;;
946;SDS011;460;48.734;9.152;2023-09-07T02:01:02;4.40;;;3.50;;
946;SDS011;460;48.734;9.152;2023-09-07T02:03:29;3.80;;;3.50;;
946;SDS011;460;48.734;9.152;2023-09-07T02:05:55;4.13;;;3.23;;
946;SDS011;460;48.734;9.152;2023-09-07T02:08:22;4.77;;;4.37;;
946;SDS011;460;48.734;9.152;2023-09-07T02:10:49;3.87;;;3.40;;
946;SDS011;460;48.734;9.152;2023-09-07T02:13:18;4.57;;;4.10;;
946;SDS011;460;48.734;9.152;2023-09-07T02:15:45;5.70;;;4.43;;
946;SDS011;460;48.734;9.152;2023-09-07T02:18:13;4.70;;;4.30;;
946;SDS011;460;48.734;9.152;2023-09-07T02:20:40;4.43;;;3.60;;
946;SDS011;460;48.734;9.152;2023-09-07T02:23:08;4.70;;;4.30;;
946;SDS011;460;48.734;9.152;2023-09-07T02:25:36;4.73;;;4.20;;
946;SDS011;460;48.734;9.152;2023-09-07T02:28:03;7.37;;;4.37;;
946;SDS011;460;48.734;9.152;2023-09-07T02:30:33;4.53;;;3.33;;
946;SDS011;460;48.734;9.152;2023-09-07T02:33:01;4.50;;;3.83;;
946;SDS011;460;48.734;9.152;2023-09-07T02:35:30;4.10;;;3.70;;
946;SDS011;460;48.734;9.152;2023-09-07T02:37:57;5.13;;;4.13;;
946;SDS011;460;48.734;9.152;2023-09-07T02:40:25;4.17;;;3.77;;
946;SDS011;460;48.734;9.152;2023-09-07T02:42:53;4.53;;;4.03;;
946;SDS011;460;48.734;9.152;2023-09-07T02:45:20;5.53;;;3.70;;
946;SDS011;460;48.734;9.152;2023-09-07T02:47:49;4.80;;;3.67;;
946;SDS011;460;48.734;9.152;2023-09-07T02:50:17;4.70;;;3.90;;
946;SDS011;460;48.734;9.152;2023-09-07T02:52:44;4.37;;;4.00;;
946;SDS011;460;48.734;9.152;2023-09-07T02:55:10;3.50;;;3.20;;
946;SDS011;460;48.734;9.152;2023-09-07T02:57:37;3.40;;;3.10;;
946;SDS011;460;48.734;9.152;2023-09-07T03:00:04;3.60;;;3.30;;
946;SDS011;460;48.734;9.152;2023-09-07T03:02:35;3.90;;;3.30;;
946;SDS011;460;48.734;9.152;2023-09-07T03:05:04;4.37;;;3.73;;
946;SDS011;460;48.734;9.152;2023-09-07T03:07:32;3.40;;;3.10;;
946;SDS011;460;48.734;9.152;2023-09-07T03:10:00;3.40;;;3.10;;
946;SDS011;460;48.734;9.152;2023-09-07T03:12:27;3.33;;;2.90;;
946;SDS011;460;48.734;9.152;2023-09-07T03:14:54;4.07;;;3.70;;
946;SDS011;460;48.734;9.152;2023-09-07T03:17:21;4.23;;;3.40;;
946;SDS011;460;48.734;9.152;2023-09-07T03:19:48;3.30;;;3.00;;
946;SDS011;460;48.734;9.152;2023-09-07T03:22:16;3.37;;;3.10;;
946;SDS011;460;48.734;9.152;2023-09-07T03:24:43;3.50;;;3.03;;
946;SDS011;460;48.734;9.152;2023-09-07T03:27:09;3.70;;;3.40;;
946;SDS011;460;48.734;9.152;2023-09-07T03:29:37;4.90;;;4.03;;
946;SDS011;460;48.734;9.152;2023-09-07T03:32:04;4.30;;;3.40;;
946;SDS011;460;48.734;9.152;2023-09-07T03:34:31;4.03;;;3.63;;
946;SDS011;460;48.734;9.152;2023-09-07T03:36:58;4.10;;;3.70;;
946;SDS011;460;48.734;9.152;2023-09-07T03:39:26;4.00;;;3.53;;
946;SDS011;460;48.734;9.152;2023-09-07T03:41:53;3.77;;;3.40;;
946;SDS011;460;48.734;9.152;2023-09-07T03:44:20;5.60;;;3.73;;
946;SDS011;460;48.734;9.152;2023-09-07T03:46:47;4.83;;;3.90;;
946;SDS011;460;48.734;9.152;2023-09-07T03:49:13;4.40;;;3.73;;
946;SDS011;460;48.734;9.152;2023-09-07T03:51:40;3.50;;;3.20;;
946;SDS011;460;48.734;9.152;2023-09-07T03:54:07;3.53;;;3.17;;
946;SDS011;460;48.734;9.152;2023-09-07T03:56:35;3.40;;;3.10;;
946;SDS011;460;48.734;9.152;2023-09-07T03:59:02;2.90;;;2.70;;
946;SDS011;460;48.734;9.152;2023-09-07T04:01:28;3.60;;;3.30;;
946;SDS011;460;48.734;9.152;2023-09-07T04:03:55;4.00;;;3.70;;
946;SDS011;460;48.734;9.152;2023-09-07T04:06:22;5.43;;;4.20;;
946;SDS011;460;48.734;9.152;2023-09-07T04:08:49;3.77;;;2.80;;
946;SDS011;460;48.734;9.152;2023-09-07T04:11:16;5.17;;;3.70;;
946;SDS011;460;48.734;9.152;2023-09-07T04:13:44;5.30;;;3.80;;
946;SDS011;460;48.734;9.152;2023-09-07T04:16:11;3.23;;;2.93;;
946;SDS011;460;48.734;9.152;2023-09-07T04:18:38;5.30;;;3.90;;
946;SDS011;460;48.734;9.152;2023-09-07T04:21:05;5.83;;;4.23;;
946;SDS011;460;48.734;9.152;2023-09-07T04:23:32;5.00;;;3.90;;
946;SDS011;460;48.734;9.152;2023-09-07T04:26:09;7.90;;;4.37;;
946;SDS011;460;48.734;9.152;2023-09-07T04:28:37;5.10;;;4.33;;
946;SDS011;460;48.734;9.152;2023-09-07T04:31:06;4.43;;;3.90;;
946;SDS011;460;48.734;9.152;2023-09-07T04:33:33;3.70;;;3.20;;
946;SDS011;460;48.734;9.152;2023-09-07T04:36:06;4.63;;;3.80;;
946;SDS011;460;48.734;9.152;2023-09-07T04:38:36;3.67;;;3.10;;
946;SDS011;460;48.734;9.152;2023-09-07T04:41:06;4.57;;;4.10;;
946;SDS011;460;48.734;9.152;2023-09-07T04:43:33;5.40;;;4.67;;
946;SDS011;460;48.734;9.152;2023-09-07T04:46:00;6.03;;;4.20;;
946;SDS011;460;48.734;9.152;2023-09-07T04:48:29;6.00;;;4.27;;
946;SDS011;460;48.734;9.152;2023-09-07T04:50:59;3.63;;;3.33;;
946;SDS011;460;48.734;9.152;2023-09-07T04:53:27;4.43;;;3.50;;
946;SDS011;460;48.734;9.152;2023-09-07T04:55:55;4.33;;;3.93;;
946;SDS011;460;48.734;9.152;2023-09-07T04:58:22;4.13;;;3.73;;
946;SDS011;460;48.734;9.152;2023-09-07T05:00:49;5.47;;;4.10;;
946;SDS011;460;48.734;9.152;2023-09-07T05:03:16;5.50;;;3.90;;
946;SDS011;460;48.734;9.152;2023-09-07T05:05:44;4.63;;;3.90;;
946;SDS011;460;48.734;9.152;2023-09-07T05:08:16;5.43;;;3.67;;
946;SDS011;460;48.734;9.152;2023-09-07T05:10:43;5.73;;;5.20;;
946;SDS011;460;48.734;9.152;2023-09-07T05:13:10;6.10;;;4.93;;
946;SDS011;460;48.734;9.152;2023-09-07T05:15:37;7.67;;;5.23;;
946;SDS011;460;48.734;9.152;2023-09-07T05:18:13;3.83;;;3.53;;
946;SDS011;460;48.734;9.152;2023-09-07T05:20:40;7.03;;;4.47;;
946;SDS011;460;48.734;9.152;2023-09-07T05:23:08;6.73;;;3.90;;
946;SDS011;460;48.734;9.152;2023-09-07T05:25:42;4.77;;;4.33;;
946;SDS011;460;48.734;9.152;2023-09-07T05:28:09;5.40;;;3.60;;
946;SDS011;460;48.734;9.152;2023-09-07T05:30:36;7.27;;;4.80;;
946;SDS011;460;48.734;9.152;2023-09-07T05:33:03;7.27;;;4.43;;
946;SDS011;460;48.734;9.152;2023-09-07T05:35:30;5.43;;;4.77;;
946;SDS011;460;48.734;9.152;2023-09-07T05:37:58;5.70;;;4.70;;
946;SDS011;460;48.734;9.152;2023-09-07T05:40:26;6.03;;;4.00;;
946;SDS011;460;48.734;9.152;2023-09-07T05:42:53;13.13;;;4.43;;
946;SDS011;460;48.734;9.152;2023-09-07T05:45:20;5.67;;;4.90;;
946;SDS011;460;48.734;9.152;2023-09-07T05:47:47;6.70;;;5.80;;
946;SDS011;460;48.734;9.152;2023-09-07T05:50:14;5.63;;;5.13;;
946;SDS011;460;48.734;9.152;2023-09-07T05:52:40;8.57;;;6.13;;
946;SDS011;460;48.734;9.152;2023-09-07T05:55:07;7.37;;;5.33;;
946;SDS011;460;48.734;9.152;2023-09-07T05:57:36;6.80;;;5.00;;
946;SDS011;460;48.734;9.152;2023-09-07T06:00:03;17.67;;;6.00;;
946;SDS011;460;48.734;9.152;2023-09-07T06:02:31;7.83;;;6.30;;
946;SDS011;460;48.734;9.152;2023-09-07T06:04:58;9.17;;;6.53;;
946;SDS011;460;48.734;9.152;2023-09-07T06:07:25;8.10;;;6.23;;
946;SDS011;460;48.734;9.152;2023-09-07T06:09:52;8.33;;;6.83;;
946;SDS011;460;48.734;9.152;2023-09-07T06:12:19;7.37;;;6.40;;
946;SDS011;460;48.734;9.152;2023-09-07T06:14:47;6.43;;;5.73;;
946;SDS011;460;48.734;9.152;2023-09-07T06:17:13;8.57;;;5.80;;
946;SDS011;460;48.734;9.152;2023-09-07T06:19:40;11.07;;;5.20;;
946;SDS011;460;48.734;9.152;2023-09-07T06:22:07;7.07;;;5.27;;
946;SDS011;460;48.734;9.152;2023-09-07T06:24:34;8.20;;;6.23;;
946;SDS011;460;48.734;9.152;2023-09-07T06:27:01;9.83;;;5.57;;
946;SDS011;460;48.734;9.152;2023-09-07T06:29:28;6.83;;;5.40;;
946;SDS011;460;48.734;9.152;2023-09-07T06:31:56;7.00;;;6.30;;
946;SDS011;460;48.734;9.152;2023-09-07T06:34:23;6.60;;;5.93;;
946;SDS011;460;48.734;9.152;2023-09-07T06:36:51;5.33;;;4.83;;
946;SDS011;460;48.734;9.152;2023-09-07T06:39:17;5.20;;;4.70;;
946;SDS011;460;48.734;9.152;2023-09-07T06:41:45;5.50;;;5.00;;
946;SDS011;460;48.734;9.152;2023-09-07T06:44:12;6.17;;;5.10;;
946;SDS011;460;48.734;9.152;2023-09-07T06:46:40;5.50;;;4.90;;
946;SDS011;460;48.734;9.152;2023-09-07T06:49:08;6.17;;;4.70;;
946;SDS011;460;48.734;9.152;2023-09-07T06:51:35;4.93;;;4.07;;
946;SDS011;460;48.734;9.152;2023-09-07T06:54:02;6.03;;;5.27;;
946;SDS011;460;48.734;9.152;2023-09-07T06:56:29;6.37;;;5.73;;
946;SDS011;460;48.734;9.152;2023-09-07T06:58:58;5.63;;;4.80;;
946;SDS011;460;48.734;9.152;2023-09-07T07:01:25;7.13;;;5.27;;
946;SDS011;460;48.734;9.152;2023-09-07T07:03:52;4.87;;;4.30;;
946;SDS011;460;48.734;9.152;2023-09-07T07:06:20;5.50;;;5.10;;
946;SDS011;460;48.734;9.152;2023-09-07T07:08:47;5.40;;;4.63;;
946;SDS011;460;48.734;9.152;2023-09-07T07:11:14;5.10;;;4.60;;
946;SDS011;460;48.734;9.152;2023-09-07T07:13:41;5.90;;;5.27;;
946;SDS011;460;48.734;9.152;2023-09-07T07:16:08;9.57;;;5.57;;
946;SDS011;460;48.734;9.152;2023-09-07T07:18:35;6.27;;;4.93;;
946;SDS011;460;48.734;9.152;2023-09-07T07:21:02;5.97;;;5.33;;
946;SDS011;460;48.734;9.152;2023-09-07T07:23:30;7.90;;;5.27;;
946;SDS011;460;48.734;9.152;2023-09-07T07:25:57;6.97;;;5.50;;
946;SDS011;460;48.734;9.152;2023-09-07T07:28:23;6.00;;;5.03;;
946;SDS011;460;48.734;9.152;2023-09-07T07:30:50;5.57;;;4.93;;
946;SDS011;460;48.734;9.152;2023-09-07T07:33:18;6.20;;;4.70;;
946;SDS011;460;48.734;9.152;2023-09-07T07:35:45;5.37;;;4.87;;
946;SDS011;460;48.734;9.152;2023-09-07T07:38:12;5.53;;;4.73;;
946;SDS011;460;48.734;9.152;2023-09-07T07:40:42;6.30;;;5.70;;
946;SDS011;460;48.734;9.152;2023-09-07T07:43:10;5.83;;;4.83;;
946;SDS011;460;48.734;9.152;2023-09-07T07:45:38;7.40;;;5.63;;
946;SDS011;460;48.734;9.152;2023-09-07T07:48:05;10.43;;;6.10;;
946;SDS011;460;48.734;9.152;2023-09-07T07:50:35;6.33;;;4.63;;
946;SDS011;460;48.734;9.152;2023-09-07T07:53:04;6.40;;;5.80;;
946;SDS011;460;48.734;9.152;2023-09-07T07:55:33;5.43;;;4.97;;
946;SDS011;460;48.734;9.152;2023-09-07T07:58:04;9.17;;;6.43;;
946;SDS011;460;48.734;9.152;2023-09-07T08:00:32;5.60;;;4.63;;
946;SDS011;460;48.734;9.152;2023-09-07T08:02:59;5.70;;;4.67;;
946;SDS011;460;48.734;9.152;2023-09-07T08:05:27;6.57;;;5.23;;
946;SDS011;460;48.734;9.152;2023-09-07T08:07:54;6.00;;;5.40;;
946;SDS011;460;48.734;9.152;2023-09-07T08:10:22;5.83;;;5.30;;
946;SDS011;460;48.734;9.152;2023-09-07T08:12:51;6.20;;;5.33;;
946;SDS011;460;48.734;9.152;2023-09-07T08:15:21;5.70;;;5.20;;
946;SDS011;460;48.734;9.152;2023-09-07T08:17:49;5.87;;;5.37;;
946;SDS011;460;48.734;9.152;2023-09-07T08:20:16;6.57;;;5.43;;
946;SDS011;460;48.734;9.152;2023-09-07T08:22:43;5.47;;;4.93;;
946;SDS011;460;48.734;9.152;2023-09-07T08:25:11;6.83;;;6.13;;
946;SDS011;460;48.734;9.152;2023-09-07T08:27:39;6.50;;;5.90;;
946;SDS011;460;48.734;9.152;2023-09-07T08:30:11;6.27;;;5.07;;
946;SDS011;460;48.734;9.152;2023-09-07T08:32:42;6.70;;;5.50;;
946;SDS011;460;48.734;9.152;2023-09-07T08:35:09;6.77;;;5.53;;
946;SDS011;460;48.734;9.152;2023-09-07T08:37:38;5.90;;;4.87;;
946;SDS011;460;48.734;9.152;2023-09-07T08:40:05;7.97;;;6.37;;
946;SDS011;460;48.734;9.152;2023-09-07T08:42:33;5.20;;;4.80;;
946;SDS011;460;48.734;9.152;2023-09-07T08:45:02;8.80;;;5.63;;
946;SDS011;460;48.734;9.152;2023-09-07T08:47:31;5.43;;;4.93;;
946;SDS011;460;48.734;9.152;2023-09-07T08:50:01;8.07;;;6.10;;
946;SDS011;460;48.734;9.152;2023-09-07T08:52:31;8.23;;;6.20;;
946;SDS011;460;48.734;9.152;2023-09-07T08:54:58;5.97;;;5.57;;
946;SDS011;460;48.734;9.152;2023-09-07T08:57:26;5.53;;;5.00;;
946;SDS011;460;48.734;9.152;2023-09-07T08:59:55;5.90;;;5.20;;
946;SDS011;460;48.734;9.152;2023-09-07T09:02:22;5.90;;;5.20;;
946;SDS011;460;48.734;9.152;2023-09-07T09:04:49;6.03;;;5.27;;
946;SDS011;460;48.734;9.152;2023-09-07T09:07:18;6.03;;;5.47;;
946;SDS011;460;48.734;9.152;2023-09-07T09:09:46;6.77;;;5.43;;
946;SDS011;460;48.734;9.152;2023-09-07T09:12:12;7.67;;;5.47;;
946;SDS011;460;48.734;9.152;2023-09-07T09:14:41;11.03;;;5.97;;
946;SDS011;460;48.734;9.152;2023-09-07T09:17:10;6.67;;;5.27;;
946;SDS011;460;48.734;9.152;2023-09-07T09:19:38;6.63;;;5.93;;
946;SDS011;460;48.734;9.152;2023-09-07T09:22:06;5.90;;;5.30;;
946;SDS011;460;48.734;9.152;2023-09-07T09:24:35;5.67;;;5.17;;
946;SDS011;460;48.734;9.152;2023-09-07T09:27:02;6.50;;;5.90;;
946;SDS011;460;48.734;9.152;2023-09-07T09:29:29;5.33;;;4.90;;
946;SDS011;460;48.734;9.152;2023-09-07T09:31:59;6.37;;;5.73;;
946;SDS011;460;48.734;9.152;2023-09-07T09:34:30;6.10;;;5.50;;
946;SDS011;460;48.734;9.152;2023-09-07T09:37:01;7.27;;;6.30;;
946;SDS011;460;48.734;9.152;2023-09-07T09:39:28;6.10;;;5.60;;
946;SDS011;460;48.734;9.152;2023-09-07T09:41:57;5.27;;;4.83;;
946;SDS011;460;48.734;9.152;2023-09-07T09:44:24;6.60;;;5.97;;
946;SDS011;460;48.734;9.152;2023-09-07T09:46:51;5.67;;;5.17;;
946;SDS011;460;48.734;9.152;2023-09-07T09:49:19;5.73;;;5.23;;
946;SDS011;460;48.734;9.152;2023-09-07T09:51:47;5.93;;;5.43;;
946;SDS011;460;48.734;9.152;2023-09-07T09:54:16;6.73;;;5.97;;
946;SDS011;460;48.734;9.152;2023-09-07T09:56:43;7.10;;;5.73;;
946;SDS011;460;48.734;9.152;2023-09-07T09:59:12;5.13;;;4.70;;
946;SDS011;460;48.734;9.152;2023-09-07T10:01:43;5.30;;;4.87;;
946;SDS011;460;48.734;9.152;2023-09-07T10:04:12;6.53;;;5.03;;
946;SDS011;460;48.734;9.152;2023-09-07T10:06:49;5.90;;;5.40;;
946;SDS011;460;48.734;9.152;2023-09-07T10:09:17;6.57;;;5.00;;
946;SDS011;460;48.734;9.152;2023-09-07T10:11:50;6.77;;;6.17;;
946;SDS011;460;48.734;9.152;2023-09-07T10:14:19;5.70;;;5.20;;
946;SDS011;460;48.734;9.152;2023-09-07T10:16:47;6.47;;;5.87;;
946;SDS011;460;48.734;9.152;2023-09-07T10:19:17;6.23;;;5.67;;
946;SDS011;460;48.734;9.152;2023-09-07T10:21:44;7.37;;;6.00;;
946;SDS011;460;48.734;9.152;2023-09-07T10:24:11;10.07;;;5.43;;
946;SDS011;460;48.734;9.152;2023-09-07T10:26:55;6.17;;;5.67;;
946;SDS011;460;48.734;9.152;2023-09-07T10:29:24;8.20;;;5.80;;
946;SDS011;460;48.734;9.152;2023-09-07T10:31:51;6.23;;;5.67;;
946;SDS011;460;48.734;9.152;2023-09-07T10:34:18;7.23;;;5.30;;
946;SDS011;460;48.734;9.152;2023-09-07T10:36:47;5.43;;;4.93;;
946;SDS011;460;48.734;9.152;2023-09-07T10:39:18;7.03;;;6.37;;
946;SDS011;460;48.734;9.152;2023-09-07T10:41:45;6.67;;;5.53;;
946;SDS011;460;48.734;9.152;2023-09-07T10:44:12;5.80;;;5.20;;
946;SDS011;460;48.734;9.152;2023-09-07T10:46:40;5.60;;;5.13;;
946;SDS011;460;48.734;9.152;2023-09-07T10:49:07;7.13;;;5.43;;
946;SDS011;460;48.734;9.152;2023-09-07T10:51:40;6.43;;;5.83;;
946;SDS011;460;48.734;9.152;2023-09-07T10:54:21;7.20;;;6.50;;
946;SDS011;460;48.734;9.152;2023-09-07T10:56:49;7.83;;;5.53;;
946;SDS011;460;48.734;9.152;2023-09-07T10:59:16;6.20;;;5.60;;
946;SDS011;460;48.734;9.152;2023-09-07T11:01:45;6.10;;;5.50;;
946;SDS011;460;48.734;9.152;2023-09-07T11:04:13;5.93;;;5.23;;
946;SDS011;460;48.734;9.152;2023-09-07T11:06:42;6.90;;;5.43;;
946;SDS011;460;48.734;9.152;2023-09-07T11:09:09;5.20;;;4.80;;
946;SDS011;460;48.734;9.152;2023-09-07T11:11:36;5.83;;;5.30;;
946;SDS011;460;48.734;9.152;2023-09-07T11:14:03;7.00;;;5.23;;
946;SDS011;460;48.734;9.152;2023-09-07T11:16:30;5.67;;;5.10;;
946;SDS011;460;48.734;9.152;2023-09-07T11:19:03;5.90;;;4.93;;
946;SDS011;460;48.734;9.152;2023-09-07T11:21:30;5.73;;;5.23;;
946;SDS011;460;48.734;9.152;2023-09-07T11:23:59;7.83;;;6.03;;
946;SDS011;460;48.734;9.152;2023-09-07T11:26:29;5.40;;;4.73;;
946;SDS011;460;48.734;9.152;2023-09-07T11:29:06;6.07;;;5.57;;
946;SDS011;460;48.734;9.152;2023-09-07T11:31:33;6.07;;;5.57;;
946;SDS011;460;48.734;9.152;2023-09-07T11:33:59;6.43;;;5.27;;
946;SDS011;460;48.734;9.152;2023-09-07T11:36:28;5.40;;;4.90;;
946;SDS011;460;48.734;9.152;2023-09-07T11:38:55;6.97;;;5.90;;
946;SDS011;460;48.734;9.152;2023-09-07T11:41:22;5.60;;;5.20;;
946;SDS011;460;48.734;9.152;2023-09-07T11:43:49;5.77;;;5.30;;
946;SDS011;460;48.734;9.152;2023-09-07T11:46:18;5.27;;;4.87;;
946;SDS011;460;48.734;9.152;2023-09-07T11:48:44;5.30;;;4.90;;
946;SDS011;460;48.734;9.152;2023-09-07T11:51:11;5.50;;;5.10;;
946;SDS011;460;48.734;9.152;2023-09-07T11:53:39;5.90;;;5.40;;
946;SDS011;460;48.734;9.152;2023-09-07T11:56:06;5.83;;;5.33;;
946;SDS011;460;48.734;9.152;2023-09-07T11:58:33;5.50;;;4.90;;
946;SDS011;460;48.734;9.152;2023-09-07T12:01:00;5.10;;;4.70;;
946;SDS011;460;48.734;9.152;2023-09-07T12:03:26;5.90;;;4.97;;
946;SDS011;460;48.734;9.152;2023-09-07T12:05:55;5.60;;;5.07;;
946;SDS011;460;48.734;9.152;2023-09-07T12:08:22;6.17;;;5.57;;
946;SDS011;460;48.734;9.152;2023-09-07T12:10:50;5.43;;;4.93;;
946;SDS011;460;48.734;9.152;2023-09-07T12:13:17;6.00;;;5.50;;
946;SDS011;460;48.734;9.152;2023-09-07T12:15:43;6.87;;;5.00;;
946;SDS011;460;48.734;9.152;2023-09-07T12:18:10;6.70;;;5.50;;
946;SDS011;460;48.734;9.152;2023-09-07T12:20:37;6.77;;;5.83;;
946;SDS011;460;48.734;9.152;2023-09-07T12:23:04;13.93;;;5.13;;
946;SDS011;460;48.734;9.152;2023-09-07T12:25:30;7.60;;;5.60;;
946;SDS011;460;48.734;9.152;2023-09-07T12:27:59;4.93;;;4.53;;
946;SDS011;460;48.734;9.152;2023-09-07T12:30:26;6.30;;;5.80;;
946;SDS011;460;48.734;9.152;2023-09-07T12:32:53;5.50;;;5.00;;
946;SDS011;460;48.734;9.152;2023-09-07T12:35:20;6.60;;;5.23;;
946;SDS011;460;48.734;9.152;2023-09-07T12:37:47;5.93;;;5.43;;
946;SDS011;460;48.734;9.152;2023-09-07T12:40:14;5.50;;;5.00;;
946;SDS011;460;48.734;9.152;2023-09-07T12:42:41;6.20;;;5.60;;
946;SDS011;460;48.734;9.152;2023-09-07T12:45:09;6.90;;;5.50;;
946;SDS011;460;48.734;9.152;2023-09-07T12:47:38;5.83;;;5.33;;
946;SDS011;460;48.734;9.152;2023-09-07T12:50:06;6.47;;;5.77;;
946;SDS011;460;48.734;9.152;2023-09-07T12:52:33;5.70;;;5.20;;
946;SDS011;460;48.734;9.152;2023-09-07T12:55:02;8.30;;;4.60;;
946;SDS011;460;48.734;9.152;2023-09-07T12:57:32;6.10;;;4.87;;
946;SDS011;460;48.734;9.152;2023-09-07T12:59:59;6.33;;;5.20;;
946;SDS011;460;48.734;9.152;2023-09-07T13:02:28;8.70;;;5.60;;
946;SDS011;460;48.734;9.152;2023-09-07T13:04:54;5.30;;;4.90;;
946;SDS011;460;48.734;9.152;2023-09-07T13:07:21;4.97;;;4.57;;
946;SDS011;460;48.734;9.152;2023-09-07T13:09:48;5.70;;;5.10;;
946;SDS011;460;48.734;9.152;2023-09-07T13:12:15;5.57;;;5.07;;
946;SDS011;460;48.734;9.152;2023-09-07T13:14:42;6.27;;;4.97;;
946;SDS011;460;48.734;9.152;2023-09-07T13:17:11;5.70;;;4.47;;
946;SDS011;460;48.734;9.152;2023-09-07T13:19:40;5.47;;;4.97;;
946;SDS011;460;48.734;9.152;2023-09-07T13:22:08;4.70;;;4.30;;
946;SDS011;460;48.734;9.152;2023-09-07T13:24:35;5.47;;;5.07;;
946;SDS011;460;48.734;9.152;2023-09-07T13:27:02;5.10;;;4.70;;
946;SDS011;460;48.734;9.152;2023-09-07T13:29:29;4.70;;;4.30;;
946;SDS011;460;48.734;9.152;2023-09-07T13:31:57;4.97;;;4.53;;
946;SDS011;460;48.734;9.152;2023-09-07T13:34:24;4.80;;;4.27;;
946;SDS011;460;48.734;9.152;2023-09-07T13:36:53;4.20;;;3.90;;
946;SDS011;460;48.734;9.152;2023-09-07T13:39:20;4.65;;;4.28;;
946;SDS011;460;48.734;9.152;2023-09-07T13:41:47;4.38;;;4.03;;
946;SDS011;460;48.734;9.152;2023-09-07T13:44:14;5.00;;;4.60;;
946;SDS011;460;48.734;9.152;2023-09-07T13:46:42;4.57;;;4.17;;
946;SDS011;460;48.734;9.152;2023-09-07T13:49:10;5.05;;;4.55;;
946;SDS011;460;48.734;9.152;2023-09-07T13:51:37;4.15;;;3.85;;
946;SDS011;460;48.734;9.152;2023-09-07T13:54:06;4.28;;;3.85;;
946;SDS011;460;48.734;9.152;2023-09-07T13:56:33;4.28;;;3.97;;
946;SDS011;460;48.734;9.152;2023-09-07T13:59:02;4.22;;;3.97;;
946;SDS011;460;48.734;9.152;2023-09-07T14:01:29;3.60;;;3.40;;
946;SDS011;460;48.734;9.152;2023-09-07T14:03:56;4.40;;;4.10;;
946;SDS011;460;48.734;9.152;2023-09-07T14:06:23;4.50;;;4.15;;
946;SDS011;460;48.734;9.152;2023-09-07T14:08:50;4.20;;;3.80;;
946;SDS011;460;48.734;9.152;2023-09-07T14:11:19;4.07;;;3.78;;
946;SDS011;460;48.734;9.152;2023-09-07T14:13:47;4.25;;;3.85;;
946;SDS011;460;48.734;9.152;2023-09-07T14:16:16;4.90;;;3.90;;
946;SDS011;460;48.734;9.152;2023-09-07T14:18:44;6.70;;;3.60;;
946;SDS011;460;48.734;9.152;2023-09-07T14:21:10;3.90;;;3.60;;
946;SDS011;460;48.734;9.152;2023-09-07T14:23:38;4.00;;;3.70;;
946;SDS011;460;48.734;9.152;2023-09-07T14:26:05;4.27;;;3.90;;
946;SDS011;460;48.734;9.152;2023-09-07T14:28:33;4.33;;;4.03;;
946;SDS011;460;48.734;9.152;2023-09-07T14:31:00;4.30;;;4.00;;
946;SDS011;460;48.734;9.152;2023-09-07T14:33:29;4.90;;;4.53;;
946;SDS011;460;48.734;9.152;2023-09-07T14:35:57;3.80;;;3.50;;
946;SDS011;460;48.734;9.152;2023-09-07T14:38:24;4.43;;;4.07;;
946;SDS011;460;48.734;9.152;2023-09-07T14:40:51;4.20;;;3.77;;
946;SDS011;460;48.734;9.152;2023-09-07T14:43:20;3.73;;;3.43;;
946;SDS011;460;48.734;9.152;2023-09-07T14:45:48;4.53;;;4.23;;
946;SDS011;460;48.734;9.152;2023-09-07T14:48:15;5.00;;;4.57;;
946;SDS011;460;48.734;9.152;2023-09-07T14:50:41;5.00;;;4.20;;
946;SDS011;460;48.734;9.152;2023-09-07T14:53:08;4.60;;;4.20;;
946;SDS011;460;48.734;9.152;2023-09-07T14:55:35;5.33;;;4.60;;
946;SDS011;460;48.734;9.152;2023-09-07T14:58:02;4.67;;;4.27;;
946;SDS011;460;48.734;9.152;2023-09-07T15:00:29;4.53;;;4.23;;
946;SDS011;460;48.734;9.152;2023-09-07T15:02:58;4.07;;;3.77;;
946;SDS011;460;48.734;9.152;2023-09-07T15:05:25;4.90;;;4.50;;
946;SDS011;460;48.734;9.152;2023-09-07T15:07:53;4.23;;;3.93;;
946;SDS011;460;48.734;9.152;2023-09-07T15:10:20;4.67;;;4.27;;
946;SDS011;460;48.734;9.152;2023-09-07T15:12:48;5.93;;;4.50;;
946;SDS011;460;48.734;9.152;2023-09-07T15:15:16;4.43;;;4.13;;
946;SDS011;460;48.734;9.152;2023-09-07T15:17:46;4.50;;;4.10;;
946;SDS011;460;48.734;9.152;2023-09-07T15:20:15;5.13;;;4.73;;
946;SDS011;460;48.734;9.152;2023-09-07T15:22:42;4.93;;;4.53;;
946;SDS011;460;48.734;9.152;2023-09-07T15:25:09;4.37;;;4.07;;
946;SDS011;460;48.734;9.152;2023-09-07T15:27:35;5.40;;;4.90;;
946;SDS011;460;48.734;9.152;2023-09-07T15:30:03;5.23;;;4.80;;
946;SDS011;460;48.734;9.152;2023-09-07T15:32:31;5.23;;;4.73;;
946;SDS011;460;48.734;9.152;2023-09-07T15:34:57;4.83;;;4.33;;
946;SDS011;460;48.734;9.152;2023-09-07T15:37:26;4.20;;;3.80;;
946;SDS011;460;48.734;9.152;2023-09-07T15:39:53;4.00;;;3.50;;
946;SDS011;460;48.734;9.152;2023-09-07T15:42:20;4.60;;;4.20;;
946;SDS011;460;48.734;9.152;2023-09-07T15:44:47;5.10;;;4.60;;
946;SDS011;460;48.734;9.152;2023-09-07T15:47:14;5.00;;;4.60;;